sensor_id;sensor_type;location;lat;lon;timestamp;pressure;altitude;pressure_sealevel;temperature;humidity
7335;BME280;3708;42.632;23.378;2024-02-21T00:00:23;94937.84;;;3.80;76.20
7335;BME280;3708;42.632;23.378;2024-02-21T00:02:50;94986.03;;;4.19;76.21
7335;BME280;3708;42.632;23.378;2024-02-21T00:05:16;94998.41;;;4.35;75.40
7335;BME280;3708;42.632;23.378;2024-02-21T00:07:41;94960.25;;;4.08;75.42
7335;BME280;3708;42.632;23.378;2024-02-21T00:10:07;94984.44;;;4.29;74.82
7335;BME280;3708;42.632;23.378;2024-02-21T00:12:33;94972.84;;;4.26;75.94
7335;BME280;3708;42.632;23.378;2024-02-21T00:14:58;94982.00;;;4.31;76.27
7335;BME280;3708;42.632;23.378;2024-02-21T00:17:24;94975.50;;;4.26;75.05
7335;BME280;3708;42.632;23.378;2024-02-21T00:19:51;95002.22;;;4.40;74.83
7335;BME280;3708;42.632;23.378;2024-02-21T00:22:17;94980.47;;;4.36;75.91
7335;BME280;3708;42.632;23.378;2024-02-21T00:24:42;94915.47;;;3.88;75.29
7335;BME280;3708;42.632;23.378;2024-02-21T00:27:08;94988.47;;;4.36;75.63
7335;BME280;3708;42.632;23.378;2024-02-21T00:29:33;94969.03;;;4.22;75.53
7335;BME280;3708;42.632;23.378;2024-02-21T00:31:59;94928.28;;;3.90;75.27
7335;BME280;3708;42.632;23.378;2024-02-21T00:34:25;94886.88;;;3.51;75.89
7335;BME280;3708;42.632;23.378;2024-02-21T00:36:51;94971.03;;;4.16;76.33
7335;BME280;3708;42.632;23.378;2024-02-21T00:39:16;94989.94;;;4.18;76.28
7335;BME280;3708;42.632;23.378;2024-02-21T00:41:42;94920.00;;;3.75;75.39
7335;BME280;3708;42.632;23.378;2024-02-21T00:44:07;94936.34;;;3.84;76.25
7335;BME280;3708;42.632;23.378;2024-02-21T00:46:33;94918.78;;;3.76;75.52
7335;BME280;3708;42.632;23.378;2024-02-21T00:48:59;94921.66;;;3.78;75.64
7335;BME280;3708;42.632;23.378;2024-02-21T00:51:24;94990.63;;;4.18;76.38
7335;BME280;3708;42.632;23.378;2024-02-21T00:53:50;94924.88;;;3.71;75.66
7335;BME280;3708;42.632;23.378;2024-02-21T00:56:16;94932.44;;;3.67;76.73
7335;BME280;3708;42.632;23.378;2024-02-21T00:58:41;94960.03;;;3.88;77.50
7335;BME280;3708;42.632;23.378;2024-02-21T01:01:07;94966.09;;;3.88;77.08
7335;BME280;3708;42.632;23.378;2024-02-21T01:03:32;94970.69;;;3.88;77.37
7335;BME280;3708;42.632;23.378;2024-02-21T01:05:58;94877.94;;;3.30;77.30
7335;BME280;3708;42.632;23.378;2024-02-21T01:08:23;94964.78;;;3.95;77.67
7335;BME280;3708;42.632;23.378;2024-02-21T01:10:49;94868.53;;;3.29;77.17
7335;BME280;3708;42.632;23.378;2024-02-21T01:13:14;94964.28;;;3.96;78.05
7335;BME280;3708;42.632;23.378;2024-02-21T01:15:40;94947.44;;;3.88;77.82
7335;BME280;3708;42.632;23.378;2024-02-21T01:18:05;94956.50;;;3.98;76.94
7335;BME280;3708;42.632;23.378;2024-02-21T01:20:31;94960.63;;;3.99;77.39
7335;BME280;3708;42.632;23.378;2024-02-21T01:22:57;94955.72;;;4.03;77.27
7335;BME280;3708;42.632;23.378;2024-02-21T01:25:23;94935.75;;;3.91;76.85
7335;BME280;3708;42.632;23.378;2024-02-21T01:27:48;94950.16;;;4.01;77.07
7335;BME280;3708;42.632;23.378;2024-02-21T01:30:14;94883.56;;;3.64;76.59
7335;BME280;3708;42.632;23.378;2024-02-21T01:32:39;94818.59;;;3.17;77.20
7335;BME280;3708;42.632;23.378;2024-02-21T01:35:05;94951.53;;;4.08;77.04
7335;BME280;3708;42.632;23.378;2024-02-21T01:37:31;94923.47;;;3.88;77.07
7335;BME280;3708;42.632;23.378;2024-02-21T01:39:56;94910.41;;;3.85;75.51
7335;BME280;3708;42.632;23.378;2024-02-21T01:42:22;94869.09;;;3.59;76.38
7335;BME280;3708;42.632;23.378;2024-02-21T01:44:47;94929.06;;;4.03;76.33
7335;BME280;3708;42.632;23.378;2024-02-21T01:47:13;94886.81;;;3.76;76.37
7335;BME280;3708;42.632;23.378;2024-02-21T01:49:42;94932.16;;;4.07;76.71
7335;BME280;3708;42.632;23.378;2024-02-21T01:52:09;94908.47;;;4.04;75.56
7335;BME280;3708;42.632;23.378;2024-02-21T01:54:35;94932.91;;;4.21;74.71
7335;BME280;3708;42.632;23.378;2024-02-21T01:57:01;94921.06;;;4.03;75.55
7335;BME280;3708;42.632;23.378;2024-02-21T01:59:27;94939.19;;;4.23;75.29
7335;BME280;3708;42.632;23.378;2024-02-21T02:01:55;94934.56;;;4.24;74.60
7335;BME280;3708;42.632;23.378;2024-02-21T02:04:21;94882.47;;;3.91;74.29
7335;BME280;3708;42.632;23.378;2024-02-21T02:06:49;94872.94;;;3.96;74.39
7335;BME280;3708;42.632;23.378;2024-02-21T02:09:18;94886.47;;;3.98;74.22
7335;BME280;3708;42.632;23.378;2024-02-21T02:11:43;94920.16;;;4.32;73.84
7335;BME280;3708;42.632;23.378;2024-02-21T02:14:09;94917.69;;;4.34;73.29
7335;BME280;3708;42.632;23.378;2024-02-21T02:16:35;94922.00;;;4.38;73.76
7335;BME280;3708;42.632;23.378;2024-02-21T02:19:00;94829.00;;;3.71;72.98
7335;BME280;3708;42.632;23.378;2024-02-21T02:21:31;94887.69;;;4.15;72.82
7335;BME280;3708;42.632;23.378;2024-02-21T02:23:58;94926.03;;;4.44;72.88
7335;BME280;3708;42.632;23.378;2024-02-21T02:26:24;94928.06;;;4.38;73.37
7335;BME280;3708;42.632;23.378;2024-02-21T02:28:50;94920.44;;;4.29;74.29
7335;BME280;3708;42.632;23.378;2024-02-21T02:31:15;94886.09;;;4.07;73.64
7335;BME280;3708;42.632;23.378;2024-02-21T02:33:43;94918.19;;;4.33;74.67
7335;BME280;3708;42.632;23.378;2024-02-21T02:36:09;94919.63;;;4.34;73.59
7335;BME280;3708;42.632;23.378;2024-02-21T02:38:35;94898.25;;;4.21;74.70
7335;BME280;3708;42.632;23.378;2024-02-21T02:41:00;94912.88;;;4.33;74.22
7335;BME280;3708;42.632;23.378;2024-02-21T02:43:26;94890.25;;;4.21;73.98
7335;BME280;3708;42.632;23.378;2024-02-21T02:45:51;94808.78;;;3.62;73.08
7335;BME280;3708;42.632;23.378;2024-02-21T02:48:17;94913.50;;;4.39;73.69
7335;BME280;3708;42.632;23.378;2024-02-21T02:50:45;94885.72;;;4.16;73.66
7335;BME280;3708;42.632;23.378;2024-02-21T02:53:11;94918.97;;;4.47;73.84
7335;BME280;3708;42.632;23.378;2024-02-21T02:55:36;94912.38;;;4.48;73.51
7335;BME280;3708;42.632;23.378;2024-02-21T02:58:02;94905.28;;;4.37;73.14
7335;BME280;3708;42.632;23.378;2024-02-21T03:00:28;94908.09;;;4.45;72.63
7335;BME280;3708;42.632;23.378;2024-02-21T03:02:54;94912.16;;;4.46;73.66
7335;BME280;3708;42.632;23.378;2024-02-21T03:05:21;94867.31;;;4.18;73.10
7335;BME280;3708;42.632;23.378;2024-02-21T03:07:47;94893.91;;;4.37;73.25
7335;BME280;3708;42.632;23.378;2024-02-21T03:10:14;94862.56;;;4.11;73.03
7335;BME280;3708;42.632;23.378;2024-02-21T03:12:41;94918.75;;;4.45;73.13
7335;BME280;3708;42.632;23.378;2024-02-21T03:15:08;94871.50;;;4.13;72.96
7335;BME280;3708;42.632;23.378;2024-02-21T03:17:33;94887.72;;;4.28;73.87
7335;BME280;3708;42.632;23.378;2024-02-21T03:20:02;94942.19;;;4.65;73.02
7335;BME280;3708;42.632;23.378;2024-02-21T03:22:31;94945.03;;;4.54;73.38
7335;BME280;3708;42.632;23.378;2024-02-21T03:24:58;94846.41;;;3.90;73.57
7335;BME280;3708;42.632;23.378;2024-02-21T03:27:23;94935.16;;;4.49;74.40
7335;BME280;3708;42.632;23.378;2024-02-21T03:29:49;94920.88;;;4.33;74.82
7335;BME280;3708;42.632;23.378;2024-02-21T03:32:14;94944.19;;;4.46;73.90
7335;BME280;3708;42.632;23.378;2024-02-21T03:34:40;94923.03;;;4.34;74.48
7335;BME280;3708;42.632;23.378;2024-02-21T03:37:05;94877.47;;;4.01;74.37
7335;BME280;3708;42.632;23.378;2024-02-21T03:39:31;94951.91;;;4.49;74.14
7335;BME280;3708;42.632;23.378;2024-02-21T03:42:00;94954.25;;;4.53;73.85
7335;BME280;3708;42.632;23.378;2024-02-21T03:44:32;94897.63;;;4.15;74.09
7335;BME280;3708;42.632;23.378;2024-02-21T03:47:01;94956.66;;;4.56;74.19
7335;BME280;3708;42.632;23.378;2024-02-21T03:49:26;94954.47;;;4.55;73.45
7335;BME280;3708;42.632;23.378;2024-02-21T03:51:52;94901.72;;;4.16;73.02
7335;BME280;3708;42.632;23.378;2024-02-21T03:54:18;94913.53;;;4.20;74.09
7335;BME280;3708;42.632;23.378;2024-02-21T03:56:44;94927.63;;;4.34;73.50
7335;BME280;3708;42.632;23.378;2024-02-21T03:59:10;94890.28;;;4.02;73.91
7335;BME280;3708;42.632;23.378;2024-02-21T04:01:35;94961.53;;;4.52;73.53
7335;BME280;3708;42.632;23.378;2024-02-21T04:04:01;94899.16;;;4.10;73.64
7335;BME280;3708;42.632;23.378;2024-02-21T04:06:27;94933.09;;;4.42;74.89
7335;BME280;3708;42.632;23.378;2024-02-21T04:08:52;94911.91;;;4.17;73.65
7335;BME280;3708;42.632;23.378;2024-02-21T04:11:18;94896.28;;;4.08;74.08
7335;BME280;3708;42.632;23.378;2024-02-21T04:13:44;94899.75;;;4.03;74.68
7335;BME280;3708;42.632;23.378;2024-02-21T04:16:11;94958.03;;;4.44;73.63
7335;BME280;3708;42.632;23.378;2024-02-21T04:18:36;94946.75;;;4.38;74.13
7335;BME280;3708;42.632;23.378;2024-02-21T04:21:02;94899.00;;;4.03;75.10
7335;BME280;3708;42.632;23.378;2024-02-21T04:23:28;94947.16;;;4.42;75.12
7335;BME280;3708;42.632;23.378;2024-02-21T04:25:53;94947.44;;;4.39;74.79
7335;BME280;3708;42.632;23.378;2024-02-21T04:28:19;94899.22;;;4.05;74.54
7335;BME280;3708;42.632;23.378;2024-02-21T04:30:44;94932.97;;;4.34;73.90
7335;BME280;3708;42.632;23.378;2024-02-21T04:33:10;94955.75;;;4.35;74.67
7335;BME280;3708;42.632;23.378;2024-02-21T04:35:36;94943.88;;;4.36;74.05
7335;BME280;3708;42.632;23.378;2024-02-21T04:38:02;94859.38;;;3.81;74.22
7335;BME280;3708;42.632;23.378;2024-02-21T04:40:27;94941.25;;;4.30;75.03
7335;BME280;3708;42.632;23.378;2024-02-21T04:42:53;94935.31;;;4.24;75.05
7335;BME280;3708;42.632;23.378;2024-02-21T04:45:19;94942.38;;;4.22;74.83
7335;BME280;3708;42.632;23.378;2024-02-21T04:47:45;94891.34;;;3.81;74.92
7335;BME280;3708;42.632;23.378;2024-02-21T04:50:10;94946.97;;;4.21;74.27
7335;BME280;3708;42.632;23.378;2024-02-21T04:52:36;94942.94;;;4.15;75.54
7335;BME280;3708;42.632;23.378;2024-02-21T04:55:02;94908.84;;;3.95;74.42
7335;BME280;3708;42.632;23.378;2024-02-21T04:57:27;94931.13;;;4.10;75.11
7335;BME280;3708;42.632;23.378;2024-02-21T04:59:53;94949.44;;;4.19;74.38
7335;BME280;3708;42.632;23.378;2024-02-21T05:02:19;94871.19;;;3.67;74.58
7335;BME280;3708;42.632;23.378;2024-02-21T05:04:47;94946.25;;;4.21;75.37
7335;BME280;3708;42.632;23.378;2024-02-21T05:07:13;94943.50;;;4.26;74.79
7335;BME280;3708;42.632;23.378;2024-02-21T05:09:38;94936.38;;;4.16;74.78
7335;BME280;3708;42.632;23.378;2024-02-21T05:12:04;94931.63;;;4.09;74.58
7335;BME280;3708;42.632;23.378;2024-02-21T05:14:30;94929.84;;;4.17;75.85
7335;BME280;3708;42.632;23.378;2024-02-21T05:16:55;94884.19;;;3.89;74.65
7335;BME280;3708;42.632;23.378;2024-02-21T05:19:21;94936.97;;;4.09;74.46
7335;BME280;3708;42.632;23.378;2024-02-21T05:21:46;94952.50;;;4.23;75.06
7335;BME280;3708;42.632;23.378;2024-02-21T05:24:12;94949.41;;;4.38;75.55
7335;BME280;3708;42.632;23.378;2024-02-21T05:26:38;94968.69;;;4.44;72.94
7335;BME280;3708;42.632;23.378;2024-02-21T05:29:03;94955.38;;;4.44;74.37
7335;BME280;3708;42.632;23.378;2024-02-21T05:31:54;94956.84;;;4.58;73.40
7335;BME280;3708;42.632;23.378;2024-02-21T05:34:21;94964.34;;;4.60;73.91
7335;BME280;3708;42.632;23.378;2024-02-21T05:36:47;94962.59;;;4.62;73.78
7335;BME280;3708;42.632;23.378;2024-02-21T05:39:15;94946.66;;;4.57;72.41
7335;BME280;3708;42.632;23.378;2024-02-21T05:41:41;94948.53;;;4.62;73.38
7335;BME280;3708;42.632;23.378;2024-02-21T05:44:07;94950.16;;;4.52;73.73
7335;BME280;3708;42.632;23.378;2024-02-21T05:46:32;94965.84;;;4.87;73.20
7335;BME280;3708;42.632;23.378;2024-02-21T05:48:58;94960.28;;;4.85;73.82
7335;BME280;3708;42.632;23.378;2024-02-21T05:51:23;94954.63;;;4.75;72.79
7335;BME280;3708;42.632;23.378;2024-02-21T05:53:49;94927.13;;;4.67;73.23
7335;BME280;3708;42.632;23.378;2024-02-21T05:56:15;94977.28;;;5.14;72.18
7335;BME280;3708;42.632;23.378;2024-02-21T05:58:41;94979.25;;;5.26;72.23
7335;BME280;3708;42.632;23.378;2024-02-21T06:01:06;94934.72;;;4.76;72.40
7335;BME280;3708;42.632;23.378;2024-02-21T06:03:33;94988.19;;;5.16;72.33
7335;BME280;3708;42.632;23.378;2024-02-21T06:05:59;94971.31;;;4.94;73.17
7335;BME280;3708;42.632;23.378;2024-02-21T06:08:25;94950.84;;;4.84;72.26
7335;BME280;3708;42.632;23.378;2024-02-21T06:10:51;94988.25;;;5.10;72.31
7335;BME280;3708;42.632;23.378;2024-02-21T06:13:20;94960.91;;;4.91;72.44
7335;BME280;3708;42.632;23.378;2024-02-21T06:15:50;94996.69;;;5.14;71.89
7335;BME280;3708;42.632;23.378;2024-02-21T06:18:19;95003.03;;;4.98;73.04
7335;BME280;3708;42.632;23.378;2024-02-21T06:20:45;95008.47;;;4.92;71.70
7335;BME280;3708;42.632;23.378;2024-02-21T06:23:12;95002.16;;;4.77;72.53
7335;BME280;3708;42.632;23.378;2024-02-21T06:25:38;94966.56;;;4.43;72.98
7335;BME280;3708;42.632;23.378;2024-02-21T06:28:05;94983.53;;;4.58;72.75
7335;BME280;3708;42.632;23.378;2024-02-21T06:30:30;95003.75;;;4.67;71.51
7335;BME280;3708;42.632;23.378;2024-02-21T06:32:56;94962.69;;;4.57;71.62
7335;BME280;3708;42.632;23.378;2024-02-21T06:35:22;95006.03;;;5.07;71.59
7335;BME280;3708;42.632;23.378;2024-02-21T06:37:50;95024.53;;;5.32;70.46
7335;BME280;3708;42.632;23.378;2024-02-21T06:40:23;95007.09;;;5.31;69.47
7335;BME280;3708;42.632;23.378;2024-02-21T06:42:52;95006.78;;;5.34;69.57
7335;BME280;3708;42.632;23.378;2024-02-21T06:45:17;95006.88;;;5.42;69.74
7335;BME280;3708;42.632;23.378;2024-02-21T06:47:43;95029.59;;;5.48;69.20
7335;BME280;3708;42.632;23.378;2024-02-21T06:50:09;95028.06;;;5.66;69.32
7335;BME280;3708;42.632;23.378;2024-02-21T06:52:36;94968.03;;;5.28;68.01
7335;BME280;3708;42.632;23.378;2024-02-21T06:55:01;95017.34;;;5.66;69.57
7335;BME280;3708;42.632;23.378;2024-02-21T06:57:29;95042.06;;;5.85;69.01
7335;BME280;3708;42.632;23.378;2024-02-21T06:59:54;95025.16;;;5.77;69.31
7335;BME280;3708;42.632;23.378;2024-02-21T07:02:20;95028.91;;;5.87;68.69
7335;BME280;3708;42.632;23.378;2024-02-21T07:04:46;95020.44;;;5.83;70.00
7335;BME280;3708;42.632;23.378;2024-02-21T07:07:11;95032.28;;;5.88;69.51
7335;BME280;3708;42.632;23.378;2024-02-21T07:09:38;95014.06;;;5.73;70.31
7335;BME280;3708;42.632;23.378;2024-02-21T07:12:04;95006.06;;;5.73;69.21
7335;BME280;3708;42.632;23.378;2024-02-21T07:14:30;94963.22;;;5.65;68.29
7335;BME280;3708;42.632;23.378;2024-02-21T07:16:57;94976.47;;;5.84;67.89
7335;BME280;3708;42.632;23.378;2024-02-21T07:19:22;95003.28;;;5.78;67.74
7335;BME280;3708;42.632;23.378;2024-02-21T07:21:48;94953.31;;;5.73;67.13
7335;BME280;3708;42.632;23.378;2024-02-21T07:24:14;95034.16;;;6.39;66.98
7335;BME280;3708;42.632;23.378;2024-02-21T07:26:43;95028.72;;;6.32;66.79
7335;BME280;3708;42.632;23.378;2024-02-21T07:29:09;95034.84;;;6.53;nan
7335;BME280;3708;42.632;23.378;2024-02-21T07:31:42;95038.06;;;6.72;66.22
7335;BME280;3708;42.632;23.378;2024-02-21T07:34:07;95037.22;;;6.77;65.58
7335;BME280;3708;42.632;23.378;2024-02-21T07:36:33;94989.19;;;6.38;66.37
7335;BME280;3708;42.632;23.378;2024-02-21T07:38:59;95042.84;;;6.87;68.83
7335;BME280;3708;42.632;23.378;2024-02-21T07:41:25;95038.69;;;6.44;65.38
7335;BME280;3708;42.632;23.378;2024-02-21T07:43:50;94991.69;;;6.36;65.80
7335;BME280;3708;42.632;23.378;2024-02-21T07:46:17;95041.06;;;6.35;65.75
7335;BME280;3708;42.632;23.378;2024-02-21T07:48:45;95026.06;;;6.19;66.06
7335;BME280;3708;42.632;23.378;2024-02-21T07:51:10;95037.94;;;6.44;65.32
7335;BME280;3708;42.632;23.378;2024-02-21T07:53:36;95020.09;;;6.26;65.37
7335;BME280;3708;42.632;23.378;2024-02-21T07:56:01;95022.88;;;6.20;65.16
7335;BME280;3708;42.632;23.378;2024-02-21T07:58:27;95030.50;;;6.16;65.84
7335;BME280;3708;42.632;23.378;2024-02-21T08:00:53;95028.16;;;6.13;66.16
7335;BME280;3708;42.632;23.378;2024-02-21T08:03:18;95041.81;;;6.22;65.57
7335;BME280;3708;42.632;23.378;2024-02-21T08:05:44;95013.03;;;6.15;65.32
7335;BME280;3708;42.632;23.378;2024-02-21T08:08:09;95029.69;;;6.21;65.98
7335;BME280;3708;42.632;23.378;2024-02-21T08:10:35;95032.84;;;6.33;65.72
7335;BME280;3708;42.632;23.378;2024-02-21T08:13:00;95025.78;;;6.09;65.97
7335;BME280;3708;42.632;23.378;2024-02-21T08:15:26;94947.66;;;5.77;65.55
7335;BME280;3708;42.632;23.378;2024-02-21T08:17:55;95024.78;;;6.46;64.81
7335;BME280;3708;42.632;23.378;2024-02-21T08:20:29;94970.31;;;6.23;63.52
7335;BME280;3708;42.632;23.378;2024-02-21T08:22:54;95028.97;;;6.55;64.30
7335;BME280;3708;42.632;23.378;2024-02-21T08:25:20;94965.13;;;6.38;63.86
7335;BME280;3708;42.632;23.378;2024-02-21T08:27:45;95030.06;;;6.59;64.50
7335;BME280;3708;42.632;23.378;2024-02-21T08:30:11;95024.91;;;6.61;64.37
7335;BME280;3708;42.632;23.378;2024-02-21T08:32:37;95034.34;;;6.96;63.49
7335;BME280;3708;42.632;23.378;2024-02-21T08:35:03;95015.59;;;6.75;64.19
7335;BME280;3708;42.632;23.378;2024-02-21T08:37:30;94919.28;;;6.21;63.15
7335;BME280;3708;42.632;23.378;2024-02-21T08:39:56;95033.16;;;7.04;63.00
7335;BME280;3708;42.632;23.378;2024-02-21T08:42:21;95040.34;;;6.89;61.68
7335;BME280;3708;42.632;23.378;2024-02-21T08:44:47;95017.34;;;6.52;62.53
7335;BME280;3708;42.632;23.378;2024-02-21T08:47:12;95039.03;;;6.62;62.84
7335;BME280;3708;42.632;23.378;2024-02-21T08:49:38;95020.84;;;6.81;62.17
7335;BME280;3708;42.632;23.378;2024-02-21T08:52:04;95023.19;;;7.05;61.66
7335;BME280;3708;42.632;23.378;2024-02-21T08:54:31;95023.75;;;7.11;61.07
7335;BME280;3708;42.632;23.378;2024-02-21T08:56:58;94976.00;;;7.02;61.10
7335;BME280;3708;42.632;23.378;2024-02-21T08:59:23;95007.63;;;7.52;61.33
7335;BME280;3708;42.632;23.378;2024-02-21T09:01:50;95028.59;;;7.33;61.18
7335;BME280;3708;42.632;23.378;2024-02-21T09:04:17;95019.28;;;7.34;60.92
7335;BME280;3708;42.632;23.378;2024-02-21T09:06:43;95032.78;;;7.21;59.96
7335;BME280;3708;42.632;23.378;2024-02-21T09:09:09;94955.06;;;6.93;59.81
7335;BME280;3708;42.632;23.378;2024-02-21T09:11:35;95015.25;;;7.20;60.26
7335;BME280;3708;42.632;23.378;2024-02-21T09:14:01;94946.59;;;6.61;60.38
7335;BME280;3708;42.632;23.378;2024-02-21T09:16:30;94959.19;;;6.73;58.72
7335;BME280;3708;42.632;23.378;2024-02-21T09:18:56;94959.56;;;6.57;58.72
7335;BME280;3708;42.632;23.378;2024-02-21T09:21:22;95027.47;;;7.29;58.48
7335;BME280;3708;42.632;23.378;2024-02-21T09:23:48;95010.03;;;7.14;58.85
7335;BME280;3708;42.632;23.378;2024-02-21T09:26:14;95030.13;;;7.49;59.61
7335;BME280;3708;42.632;23.378;2024-02-21T09:28:41;95026.19;;;7.22;58.38
7335;BME280;3708;42.632;23.378;2024-02-21T09:31:07;95015.28;;;6.99;59.09
7335;BME280;3708;42.632;23.378;2024-02-21T09:33:32;95017.69;;;7.10;60.22
7335;BME280;3708;42.632;23.378;2024-02-21T09:35:58;95023.13;;;7.46;59.40
7335;BME280;3708;42.632;23.378;2024-02-21T09:38:24;95025.72;;;7.59;58.77
7335;BME280;3708;42.632;23.378;2024-02-21T09:41:00;95029.06;;;7.80;58.75
7335;BME280;3708;42.632;23.378;2024-02-21T09:43:29;94945.88;;;7.09;59.64
7335;BME280;3708;42.632;23.378;2024-02-21T09:45:55;94990.78;;;6.95;61.91
7335;BME280;3708;42.632;23.378;2024-02-21T09:51:03;95005.53;;;7.09;61.35
7335;BME280;3708;42.632;23.378;2024-02-21T09:53:30;95020.84;;;7.50;59.96
7335;BME280;3708;42.632;23.378;2024-02-21T09:55:57;95016.84;;;7.44;61.12
7335;BME280;3708;42.632;23.378;2024-02-21T09:58:25;95007.63;;;7.52;59.74
7335;BME280;3708;42.632;23.378;2024-02-21T10:00:52;95008.53;;;7.90;59.00
7335;BME280;3708;42.632;23.378;2024-02-21T10:03:18;94965.50;;;7.60;59.71
7335;BME280;3708;42.632;23.378;2024-02-21T10:05:48;94970.88;;;7.60;58.05
7335;BME280;3708;42.632;23.378;2024-02-21T10:08:15;95032.75;;;7.70;58.84
7335;BME280;3708;42.632;23.378;2024-02-21T10:10:44;95025.88;;;7.54;59.54
7335;BME280;3708;42.632;23.378;2024-02-21T10:13:21;95022.94;;;7.72;58.33
7335;BME280;3708;42.632;23.378;2024-02-21T10:15:47;95012.47;;;7.89;58.41
7335;BME280;3708;42.632;23.378;2024-02-21T10:18:17;94977.84;;;7.99;56.03
7335;BME280;3708;42.632;23.378;2024-02-21T10:20:43;95009.19;;;8.12;56.96
7335;BME280;3708;42.632;23.378;2024-02-21T10:23:09;94992.75;;;7.79;56.46
7335;BME280;3708;42.632;23.378;2024-02-21T10:25:35;94960.28;;;7.55;56.45
7335;BME280;3708;42.632;23.378;2024-02-21T10:28:06;95000.31;;;7.88;57.43
7335;BME280;3708;42.632;23.378;2024-02-21T10:30:32;95003.31;;;8.21;55.97
7335;BME280;3708;42.632;23.378;2024-02-21T10:32:58;95006.03;;;7.85;56.36
7335;BME280;3708;42.632;23.378;2024-02-21T10:35:32;94996.81;;;8.09;55.56
7335;BME280;3708;42.632;23.378;2024-02-21T10:37:59;94934.84;;;7.76;55.80
7335;BME280;3708;42.632;23.378;2024-02-21T10:40:26;94979.94;;;8.36;56.05
7335;BME280;3708;42.632;23.378;2024-02-21T10:42:57;94915.72;;;8.31;54.59
7335;BME280;3708;42.632;23.378;2024-02-21T10:45:30;94948.28;;;8.50;53.74
7335;BME280;3708;42.632;23.378;2024-02-21T10:48:06;94955.84;;;8.89;54.53
7335;BME280;3708;42.632;23.378;2024-02-21T10:50:39;94903.19;;;8.94;52.02
7335;BME280;3708;42.632;23.378;2024-02-21T10:53:36;94940.44;;;9.12;51.98
7335;BME280;3708;42.632;23.378;2024-02-21T10:58:38;94935.44;;;8.86;52.28
7335;BME280;3708;42.632;23.378;2024-02-21T11:01:05;94861.84;;;8.67;50.58
7335;BME280;3708;42.632;23.378;2024-02-21T11:03:31;94935.06;;;9.05;50.16
7335;BME280;3708;42.632;23.378;2024-02-21T11:05:58;94932.59;;;8.77;51.20
7335;BME280;3708;42.632;23.378;2024-02-21T11:08:24;94913.56;;;8.52;49.48
7335;BME280;3708;42.632;23.378;2024-02-21T11:10:57;94926.84;;;8.95;50.53
7335;BME280;3708;42.632;23.378;2024-02-21T11:13:31;94869.19;;;8.81;48.85
7335;BME280;3708;42.632;23.378;2024-02-21T11:16:11;94934.47;;;9.44;49.22
7335;BME280;3708;42.632;23.378;2024-02-21T11:18:38;94882.09;;;8.90;47.21
7335;BME280;3708;42.632;23.378;2024-02-21T11:21:04;94854.66;;;8.84;47.23
7335;BME280;3708;42.632;23.378;2024-02-21T11:23:32;94928.63;;;9.08;48.10
7335;BME280;3708;42.632;23.378;2024-02-21T11:26:10;94869.91;;;8.74;47.50
7335;BME280;3708;42.632;23.378;2024-02-21T11:28:44;94914.53;;;10.02;45.70
7335;BME280;3708;42.632;23.378;2024-02-21T11:31:14;94918.31;;;10.63;44.75
7335;BME280;3708;42.632;23.378;2024-02-21T11:33:43;94887.16;;;9.88;46.30
7335;BME280;3708;42.632;23.378;2024-02-21T11:36:09;94900.19;;;9.60;47.70
7335;BME280;3708;42.632;23.378;2024-02-21T11:38:35;94893.47;;;9.83;46.94
7335;BME280;3708;42.632;23.378;2024-02-21T11:41:01;94888.13;;;10.16;44.40
7335;BME280;3708;42.632;23.378;2024-02-21T11:43:26;94911.56;;;10.30;45.35
7335;BME280;3708;42.632;23.378;2024-02-21T11:46:01;94906.63;;;9.72;47.30
7335;BME280;3708;42.632;23.378;2024-02-21T11:48:29;94839.34;;;9.24;45.43
7335;BME280;3708;42.632;23.378;2024-02-21T11:50:55;94906.19;;;9.28;46.49
7335;BME280;3708;42.632;23.378;2024-02-21T11:53:21;94862.75;;;8.46;48.71
7335;BME280;3708;42.632;23.378;2024-02-21T11:55:47;94892.81;;;8.90;47.78
7335;BME280;3708;42.632;23.378;2024-02-21T11:58:12;94873.84;;;8.81;47.89
7335;BME280;3708;42.632;23.378;2024-02-21T12:00:38;94893.53;;;8.83;48.28
7335;BME280;3708;42.632;23.378;2024-02-21T12:03:04;94879.41;;;8.60;48.43
7335;BME280;3708;42.632;23.378;2024-02-21T12:05:31;94850.22;;;8.34;50.46
7335;BME280;3708;42.632;23.378;2024-02-21T12:07:57;94822.78;;;7.98;49.14
7335;BME280;3708;42.632;23.378;2024-02-21T12:10:23;94885.81;;;8.34;47.62
7335;BME280;3708;42.632;23.378;2024-02-21T12:12:51;94865.63;;;8.33;49.56
7335;BME280;3708;42.632;23.378;2024-02-21T12:15:18;94874.22;;;8.47;49.31
7335;BME280;3708;42.632;23.378;2024-02-21T12:17:44;94853.81;;;8.29;49.33
7335;BME280;3708;42.632;23.378;2024-02-21T12:20:10;94877.09;;;8.49;49.99
7335;BME280;3708;42.632;23.378;2024-02-21T12:22:39;94828.00;;;8.11;50.18
7335;BME280;3708;42.632;23.378;2024-02-21T12:25:17;94869.00;;;8.56;50.32
7335;BME280;3708;42.632;23.378;2024-02-21T12:27:48;94839.44;;;8.19;49.93
7335;BME280;3708;42.632;23.378;2024-02-21T12:30:14;94802.78;;;7.99;50.52
7335;BME280;3708;42.632;23.378;2024-02-21T12:32:40;94855.78;;;8.28;50.77
7335;BME280;3708;42.632;23.378;2024-02-21T12:35:07;94865.44;;;8.39;49.84
7335;BME280;3708;42.632;23.378;2024-02-21T12:37:32;94867.06;;;8.42;50.68
7335;BME280;3708;42.632;23.378;2024-02-21T12:39:58;94840.91;;;8.27;51.34
7335;BME280;3708;42.632;23.378;2024-02-21T12:42:24;94857.19;;;8.29;50.44
7335;BME280;3708;42.632;23.378;2024-02-21T12:44:52;94868.41;;;8.05;50.48
7335;BME280;3708;42.632;23.378;2024-02-21T12:47:18;94848.38;;;7.99;51.39
7335;BME280;3708;42.632;23.378;2024-02-21T12:49:45;94858.41;;;8.06;51.14
7335;BME280;3708;42.632;23.378;2024-02-21T12:52:11;94863.19;;;8.00;50.96
7335;BME280;3708;42.632;23.378;2024-02-21T12:54:37;94807.56;;;7.70;51.43
7335;BME280;3708;42.632;23.378;2024-02-21T12:57:02;94858.41;;;8.06;50.55
7335;BME280;3708;42.632;23.378;2024-02-21T12:59:29;94810.25;;;7.70;51.18
7335;BME280;3708;42.632;23.378;2024-02-21T13:01:55;94851.22;;;8.01;50.35
7335;BME280;3708;42.632;23.378;2024-02-21T13:04:20;94792.16;;;7.63;50.26
7335;BME280;3708;42.632;23.378;2024-02-21T13:06:48;94772.69;;;7.62;50.68
7335;BME280;3708;42.632;23.378;2024-02-21T13:09:14;94841.25;;;8.24;49.86
7335;BME280;3708;42.632;23.378;2024-02-21T13:11:40;94797.03;;;7.87;50.92
7335;BME280;3708;42.632;23.378;2024-02-21T13:14:06;94825.50;;;8.13;49.93
7335;BME280;3708;42.632;23.378;2024-02-21T13:16:32;94833.03;;;8.37;49.86
7335;BME280;3708;42.632;23.378;2024-02-21T13:19:04;94825.00;;;8.37;49.86
7335;BME280;3708;42.632;23.378;2024-02-21T13:21:30;94819.09;;;8.38;51.38
7335;BME280;3708;42.632;23.378;2024-02-21T13:23:55;94836.25;;;8.66;49.98